Time;durP1;ratioP1;P1;durP2;ratioP2;P2;SDS_P1;SDS_P2;PMS_P1;PMS_P2;Temp;Humidity;BMP_temperature;BMP_pressure;BME280_temperature;BME280_humidity;BME280_pressure;Samples;Min_cycle;Max_cycle;Signal;HPM_P1;HPM_P2
2022/11/01 00:00:43;;;;;;;33.17;17.53;;;10.40;99.90;;;;;;4146536;28;20088;-71
2022/11/01 00:02:44;;;;;;;36.23;16.83;;;10.40;99.90;;;;;;4146076;28;20034;-74
2022/11/01 00:04:45;;;;;;;30.73;16.87;;;10.40;99.90;;;;;;4147837;28;20049;-72
2022/11/01 00:06:47;;;;;;;32.07;16.67;;;10.40;99.90;;;;;;4146021;28;20473;-63
2022/11/01 00:08:48;;;;;;;41.50;19.27;;;10.40;99.90;;;;;;4145829;28;20537;-73
2022/11/01 00:10:49;;;;;;;33.67;17.47;;;10.40;99.90;;;;;;4155891;28;20875;-68
2022/11/01 00:12:51;;;;;;;31.30;16.83;;;10.40;99.90;;;;;;4146893;28;20022;-69
2022/11/01 00:14:52;;;;;;;32.50;16.80;;;10.40;99.90;;;;;;4146781;28;20103;-72
2022/11/01 00:16:53;;;;;;;33.70;17.13;;;10.40;99.90;;;;;;4146057;28;20486;-66
2022/11/01 00:18:54;;;;;;;34.47;16.40;;;10.40;99.90;;;;;;4145763;28;20053;-63
2022/11/01 00:20:55;;;;;;;34.83;17.90;;;10.40;99.90;;;;;;4146055;28;20441;-65
2022/11/01 00:22:56;;;;;;;30.43;17.00;;;10.40;99.90;;;;;;4145631;28;20478;-64
2022/11/01 00:24:57;;;;;;;32.17;16.33;;;10.40;99.90;;;;;;4128545;28;20070;-71
2022/11/01 00:26:58;;;;;;;34.00;15.50;;;10.40;99.90;;;;;;4145121;28;20528;-72
2022/11/01 00:29:00;;;;;;;30.27;16.07;;;10.30;99.90;;;;;;4146764;28;20061;-74
2022/11/01 00:31:01;;;;;;;33.73;15.80;;;10.30;99.90;;;;;;4147935;28;20529;-72
2022/11/01 00:33:02;;;;;;;33.90;17.53;;;10.30;99.90;;;;;;4150639;28;20049;-74
2022/11/01 00:35:04;;;;;;;33.83;15.67;;;10.30;99.90;;;;;;4157421;28;20450;-64
2022/11/01 00:37:05;;;;;;;34.37;16.40;;;10.30;99.90;;;;;;4158186;28;20088;-65
2022/11/01 00:39:06;;;;;;;28.17;15.47;;;10.30;99.90;;;;;;4162251;28;20119;-71
2022/11/01 00:41:08;;;;;;;34.00;17.13;;;10.30;99.90;;;;;;4161214;28;20041;-72
2022/11/01 00:43:10;;;;;;;31.93;15.27;;;10.40;99.90;;;;;;4150295;28;20037;-72
2022/11/01 00:45:11;;;;;;;34.90;17.23;;;10.40;99.90;;;;;;4161629;28;20446;-67
2022/11/01 00:47:12;;;;;;;32.40;16.17;;;10.40;99.90;;;;;;4161400;28;20057;-72
2022/11/01 00:49:13;;;;;;;34.00;15.80;;;10.40;99.90;;;;;;4159360;28;20063;-72
2022/11/01 00:51:14;;;;;;;30.07;15.03;;;10.40;99.90;;;;;;4162867;28;20628;-71
2022/11/01 00:53:16;;;;;;;30.57;15.33;;;10.40;99.90;;;;;;4161671;28;20034;-69
2022/11/01 00:55:17;;;;;;;26.73;14.77;;;10.40;99.90;;;;;;4162147;28;20087;-72
2022/11/01 00:57:18;;;;;;;32.50;14.77;;;10.30;99.90;;;;;;4161794;28;20493;-65
2022/11/01 00:59:19;;;;;;;27.43;14.50;;;10.40;99.90;;;;;;4162109;28;20052;-68
2022/11/01 01:01:21;;;;;;;28.03;15.87;;;10.40;99.90;;;;;;4161244;28;20037;-71
2022/11/01 01:03:22;;;;;;;31.43;16.07;;;10.40;99.90;;;;;;4158896;28;20135;-60
2022/11/01 01:05:23;;;;;;;32.10;16.73;;;10.40;99.90;;;;;;4146167;28;20088;-61
2022/11/01 01:07:24;;;;;;;34.63;17.87;;;10.40;99.90;;;;;;4144532;28;20117;-73
2022/11/01 01:09:25;;;;;;;35.17;16.83;;;10.40;99.90;;;;;;4146027;28;20085;-66
2022/11/01 01:11:27;;;;;;;35.53;17.17;;;10.40;99.90;;;;;;4144121;28;20037;-73
2022/11/01 01:13:28;;;;;;;38.60;18.20;;;10.30;99.90;;;;;;4145445;28;20050;-72
2022/11/01 01:15:29;;;;;;;32.77;16.90;;;10.30;99.90;;;;;;4144018;28;20103;-70
2022/11/01 01:17:31;;;;;;;36.30;17.97;;;10.30;99.90;;;;;;4145856;28;20068;-73
2022/11/01 01:19:33;;;;;;;36.13;17.77;;;10.30;99.90;;;;;;4144578;28;20049;-62
2022/11/01 01:21:34;;;;;;;41.33;18.20;;;10.30;99.90;;;;;;4145751;28;20084;-71
2022/11/01 01:23:36;;;;;;;44.17;18.93;;;10.30;99.90;;;;;;4144085;28;20084;-71
2022/11/01 01:25:41;;;;;;;40.47;19.50;;;10.30;99.90;;;;;;4146832;28;20026;-73
2022/11/01 01:27:42;;;;;;;36.83;17.53;;;10.20;99.90;;;;;;4145021;28;20382;-71
2022/11/01 01:29:44;;;;;;;36.73;18.27;;;10.20;99.90;;;;;;4145694;28;20033;-69
2022/11/01 01:31:45;;;;;;;41.67;17.80;;;10.20;99.90;;;;;;4154067;28;20363;-73
2022/11/01 01:33:46;;;;;;;37.57;17.97;;;10.20;99.90;;;;;;4160773;28;20033;-73
2022/11/01 01:35:47;;;;;;;37.10;18.27;;;10.20;99.90;;;;;;4161157;28;20042;-72
2022/11/01 01:37:48;;;;;;;36.97;19.83;;;10.20;99.90;;;;;;4160198;28;20046;-65
2022/11/01 01:39:49;;;;;;;40.23;19.87;;;10.20;99.90;;;;;;4161860;28;20033;-69
2022/11/01 01:41:56;;;;;;;36.30;19.07;;;10.20;99.90;;;;;;4142899;28;20042;-73
2022/11/01 01:43:58;;;;;;;45.20;20.73;;;10.20;99.90;;;;;;4162548;28;20547;-72
2022/11/01 01:45:59;;;;;;;40.10;18.53;;;10.20;99.90;;;;;;4160200;28;20382;-70
2022/11/01 01:48:21;;;;;;;41.37;18.90;;;10.20;99.90;;;;;;4160524;28;20030;-63
2022/11/01 01:50:34;;;;;;;37.63;18.23;;;10.20;99.90;;;;;;4160119;28;20033;-72
2022/11/01 01:53:02;;;;;;;30.17;16.17;;;10.20;99.90;;;;;;4161533;28;20091;-64
2022/11/01 01:55:08;;;;;;;28.23;15.10;;;10.20;99.90;;;;;;4160464;28;20600;-69
2022/11/01 01:57:10;;;;;;;29.50;12.83;;;10.10;99.90;;;;;;4160476;28;20041;-67
2022/11/01 01:59:12;;;;;;;25.70;13.33;;;10.10;99.90;;;;;;4160429;28;20092;-62
2022/11/01 02:01:13;;;;;;;28.80;14.43;;;10.10;99.90;;;;;;4161259;28;20033;-72
2022/11/01 02:03:15;;;;;;;26.63;14.60;;;10.10;99.90;;;;;;4156347;28;20034;-66
2022/11/01 02:05:23;;;;;;;25.83;14.73;;;10.10;99.90;;;;;;4160324;28;20445;-67
2022/11/01 02:07:25;;;;;;;30.70;14.53;;;10.10;99.90;;;;;;4160004;28;20103;-70
2022/11/01 02:09:26;;;;;;;29.27;14.07;;;10.10;99.90;;;;;;4160798;28;20643;-63
2022/11/01 02:11:28;;;;;;;30.90;15.70;;;10.10;99.90;;;;;;4160645;28;20026;-69
2022/11/01 02:13:30;;;;;;;30.20;14.77;;;10.10;99.90;;;;;;4154248;28;20029;-60
2022/11/01 02:15:43;;;;;;;31.03;16.17;;;10.10;99.90;;;;;;4144041;28;20092;-68
2022/11/01 02:17:59;;;;;;;29.57;15.63;;;10.10;99.90;;;;;;4144621;28;20506;-67
2022/11/01 02:20:10;;;;;;;32.97;14.57;;;10.00;99.90;;;;;;4144118;28;20467;-69
2022/11/01 02:22:20;;;;;;;32.37;15.50;;;10.10;99.90;;;;;;4145351;28;20461;-62
2022/11/01 02:24:24;;;;;;;28.75;13.65;;;10.10;99.90;;;;;;4144108;28;20065;-70
2022/11/01 02:27:05;;;;;;;30.33;14.93;;;10.10;99.90;;;;;;4151914;28;20049;-67
2022/11/01 02:29:21;;;;;;;30.70;14.67;;;10.10;99.90;;;;;;4159920;28;20071;-69
2022/11/01 02:31:32;;;;;;;33.17;16.37;;;10.20;99.90;;;;;;4160664;28;20142;-69
2022/11/01 02:33:41;;;;;;;35.83;19.30;;;10.20;99.90;;;;;;4153294;28;20096;-66
2022/11/01 02:36:04;;;;;;;42.43;18.03;;;10.20;99.90;;;;;;4148531;28;20092;-71
2022/11/01 02:38:11;;;;;;;35.10;17.30;;;10.10;99.90;;;;;;4146726;28;20050;-71
2022/11/01 02:40:26;;;;;;;41.13;19.17;;;10.10;99.90;;;;;;4147784;28;20379;-70
2022/11/01 02:42:30;;;;;;;37.43;17.97;;;10.10;99.90;;;;;;4147196;28;20100;-69
2022/11/01 02:44:36;;;;;;;37.43;16.33;;;10.10;99.90;;;;;;4147673;28;20100;-70
2022/11/01 02:48:59;;;;;;;33.53;15.80;;;10.10;99.90;;;;;;4164475;28;20202;-72
2022/11/01 02:51:00;;;;;;;32.10;16.10;;;10.10;99.90;;;;;;4163154;28;20099;-62
2022/11/01 02:53:02;;;;;;;33.70;16.93;;;10.00;99.90;;;;;;4164568;28;20029;-66
2022/11/01 02:55:28;;;;;;;34.70;16.90;;;10.00;99.90;;;;;;4162959;28;20068;-69
2022/11/01 02:57:48;;;;;;;32.70;16.27;;;10.00;99.90;;;;;;4163908;28;20555;-71
2022/11/01 02:59:49;;;;;;;33.70;16.27;;;10.10;99.90;;;;;;4162842;28;20049;-61
2022/11/01 03:02:07;;;;;;;38.93;16.97;;;10.10;99.90;;;;;;4148715;28;20560;-63
2022/11/01 03:04:08;;;;;;;37.43;16.70;;;10.10;99.90;;;;;;4145726;28;20111;-69
2022/11/01 03:06:37;;;;;;;30.13;15.67;;;10.10;99.90;;;;;;4147548;28;20029;-60
2022/11/01 03:08:40;;;;;;;31.53;15.47;;;10.10;99.90;;;;;;4143621;28;20489;-72
2022/11/01 03:10:50;;;;;;;30.47;15.60;;;10.00;99.90;;;;;;4146984;28;20038;-62
2022/11/01 03:13:31;;;;;;;34.10;15.75;;;10.10;99.90;;;;;;4157606;28;20374;-72
2022/11/01 03:15:38;;;;;;;;;;;10.10;99.90;;;;;;4141122;28;20498;-61
2022/11/01 03:17:50;;;;;;;26.90;14.23;;;10.10;99.90;;;;;;4147283;28;19960;-63
2022/11/01 03:20:07;;;;;;;28.20;14.23;;;10.10;99.90;;;;;;4147021;28;20418;-64
2022/11/01 03:22:25;;;;;;;31.17;14.20;;;10.10;99.90;;;;;;4147652;28;20088;-70
2022/11/01 03:24:34;;;;;;;24.00;13.27;;;10.10;99.90;;;;;;4146730;28;20042;-71
2022/11/01 03:26:38;;;;;;;29.20;13.43;;;10.20;99.90;;;;;;4147758;28;20041;-66
2022/11/01 03:28:43;;;;;;;28.53;14.27;;;10.20;99.90;;;;;;4147192;28;20030;-72
2022/11/01 03:30:49;;;;;;;25.73;13.63;;;10.20;99.90;;;;;;4147337;28;21098;-67
2022/11/01 03:32:56;;;;;;;30.97;14.90;;;10.20;99.90;;;;;;4146042;28;20040;-61
2022/11/01 03:35:00;;;;;;;27.73;14.23;;;10.20;99.90;;;;;;4146689;28;20128;-67
2022/11/01 03:37:05;;;;;;;31.67;13.63;;;10.20;99.90;;;;;;4162231;28;20072;-66
2022/11/01 03:39:18;;;;;;;25.50;14.53;;;10.30;99.90;;;;;;4148460;28;20026;-68
2022/11/01 03:41:21;;;;;;;28.53;13.80;;;10.30;99.90;;;;;;4146762;28;20030;-71
2022/11/01 03:43:25;;;;;;;32.40;14.57;;;10.30;99.90;;;;;;4146725;28;20445;-68
2022/11/01 03:45:29;;;;;;;34.07;15.10;;;10.30;99.90;;;;;;4146633;28;20026;-70
2022/11/01 03:47:30;;;;;;;27.67;14.23;;;10.20;99.90;;;;;;4145305;28;20096;-72
2022/11/01 03:49:31;;;;;;;24.27;12.93;;;10.30;99.90;;;;;;4146447;28;20042;-72
2022/11/01 03:51:32;;;;;;;24.93;14.03;;;10.20;99.90;;;;;;4146284;28;20529;-68
2022/11/01 03:53:34;;;;;;;25.33;14.50;;;10.20;99.90;;;;;;4148455;28;20041;-64
2022/11/01 03:55:35;;;;;;;22.73;13.53;;;10.20;99.90;;;;;;4162353;28;20413;-62
2022/11/01 03:57:36;;;;;;;27.80;12.90;;;10.20;99.90;;;;;;4163594;28;20033;-67
2022/11/01 03:59:37;;;;;;;29.70;14.33;;;10.20;99.90;;;;;;4161544;28;20591;-62
2022/11/01 04:01:38;;;;;;;26.53;13.17;;;10.10;99.90;;;;;;4162756;28;20069;-65
2022/11/01 04:03:40;;;;;;;26.10;14.17;;;10.10;99.90;;;;;;4162041;28;20018;-72
2022/11/01 04:05:41;;;;;;;26.43;14.27;;;10.10;99.90;;;;;;4163100;28;20045;-69
2022/11/01 04:07:43;;;;;;;26.70;13.37;;;10.10;99.90;;;;;;4162424;28;20083;-61
2022/11/01 04:09:44;;;;;;;28.17;12.60;;;10.00;99.90;;;;;;4144876;28;20080;-71
2022/11/01 04:11:45;;;;;;;22.67;12.47;;;10.00;99.90;;;;;;4144876;28;20026;-71
2022/11/01 04:13:46;;;;;;;25.80;12.77;;;10.00;99.90;;;;;;4162824;28;20026;-72
2022/11/01 04:20:35;;;;;;;25.87;12.17;;;10.00;99.90;;;;;;4162762;28;20449;-72
2022/11/01 04:22:37;;;;;;;28.23;12.80;;;10.00;99.90;;;;;;4160572;28;20083;-64
2022/11/01 04:24:38;;;;;;;29.80;15.17;;;10.00;99.90;;;;;;4162530;28;20041;-69
2022/11/01 04:26:39;;;;;;;32.20;14.53;;;10.00;99.90;;;;;;4162448;28;20075;-72
2022/11/01 04:28:40;;;;;;;32.17;15.87;;;10.00;99.90;;;;;;4160110;28;20083;-70
2022/11/01 04:30:42;;;;;;;33.73;15.60;;;10.00;99.90;;;;;;4151793;28;20453;-70
2022/11/01 04:32:44;;;;;;;31.20;14.13;;;9.90;99.90;;;;;;4146510;28;20077;-72
2022/11/01 04:34:45;;;;;;;40.03;18.10;;;9.90;99.90;;;;;;4147342;28;20053;-68
2022/11/01 04:36:46;;;;;;;36.90;16.13;;;9.90;99.90;;;;;;4146553;28;20471;-66
2022/11/01 04:38:49;;;;;;;31.37;14.63;;;9.90;99.90;;;;;;4145384;28;20064;-73
2022/11/01 04:40:50;;;;;;;30.23;14.73;;;9.90;99.90;;;;;;4146717;28;20049;-73
2022/11/01 04:42:54;;;;;;;35.60;15.33;;;9.90;99.90;;;;;;4147745;28;20087;-68
2022/11/01 04:44:55;;;;;;;31.03;16.27;;;10.00;99.90;;;;;;4161467;28;20033;-72
2022/11/01 04:46:57;;;;;;;31.67;15.53;;;9.90;99.90;;;;;;4155405;28;20042;-73
2022/11/01 04:48:58;;;;;;;29.10;13.17;;;10.00;99.90;;;;;;4146411;28;20088;-60
2022/11/01 04:51:01;;;;;;;29.13;14.53;;;10.00;99.90;;;;;;4147062;28;20030;-60
2022/11/01 04:53:02;;;;;;;26.40;13.90;;;10.00;99.90;;;;;;4160897;28;20362;-64
2022/11/01 04:55:03;;;;;;;28.57;14.27;;;10.00;99.90;;;;;;4154136;28;20030;-67
2022/11/01 04:57:04;;;;;;;28.20;14.23;;;9.90;99.90;;;;;;4145545;28;20038;-62
2022/11/01 04:59:06;;;;;;;27.77;14.03;;;9.90;99.90;;;;;;4145494;28;20033;-61
2022/11/01 05:01:07;;;;;;;27.77;14.03;;;10.00;99.90;;;;;;4145506;28;20429;-61
2022/11/01 05:03:09;;;;;;;25.70;13.63;;;10.00;99.90;;;;;;4160385;28;20033;-61
2022/11/01 05:05:11;;;;;;;30.50;14.67;;;10.00;99.90;;;;;;4161283;28;20541;-69
2022/11/01 05:07:13;;;;;;;27.87;13.33;;;10.00;99.90;;;;;;4161733;28;20119;-62
2022/11/01 05:09:14;;;;;;;31.73;14.07;;;9.90;99.90;;;;;;4160973;28;20021;-68
2022/11/01 05:11:15;;;;;;;24.47;12.43;;;9.90;99.90;;;;;;4149635;28;20482;-73
2022/11/01 05:13:16;;;;;;;24.57;13.93;;;9.90;99.90;;;;;;4159367;28;20052;-63
2022/11/01 05:15:18;;;;;;;28.67;13.83;;;9.90;99.90;;;;;;4161207;28;20049;-62
2022/11/01 05:17:19;;;;;;;26.10;13.27;;;9.90;99.90;;;;;;4160635;28;20030;-60
2022/11/01 05:19:20;;;;;;;25.87;13.17;;;10.00;99.90;;;;;;4154048;28;20096;-61
2022/11/01 05:21:21;;;;;;;28.60;13.80;;;9.90;99.90;;;;;;4158551;28;20539;-62
2022/11/01 05:23:22;;;;;;;26.37;14.07;;;10.00;99.90;;;;;;4160990;28;20068;-61
2022/11/01 05:25:24;;;;;;;32.07;13.50;;;10.00;99.90;;;;;;4159122;28;20033;-62
2022/11/01 05:27:25;;;;;;;27.27;12.67;;;9.90;99.90;;;;;;4161434;28;20102;-67
2022/11/01 05:29:26;;;;;;;28.23;14.37;;;10.00;99.90;;;;;;4160926;28;20523;-61
2022/11/01 05:31:27;;;;;;;25.63;13.27;;;9.90;99.90;;;;;;4160319;28;20103;-61
2022/11/01 05:33:28;;;;;;;22.40;11.73;;;9.90;99.90;;;;;;4161066;28;20413;-58
2022/11/01 05:35:30;;;;;;;24.77;11.97;;;10.00;99.90;;;;;;4160216;28;20500;-61
2022/11/01 05:37:31;;;;;;;24.13;11.63;;;10.00;99.90;;;;;;4155243;28;20765;-60
2022/11/01 05:39:33;;;;;;;23.40;11.10;;;10.00;99.90;;;;;;4148238;28;20469;-60
2022/11/01 05:41:34;;;;;;;20.00;11.13;;;10.00;99.90;;;;;;4153693;28;20054;-65
2022/11/01 05:43:35;;;;;;;18.00;10.47;;;10.00;99.90;;;;;;4148022;28;20096;-61
2022/11/01 05:45:36;;;;;;;21.47;10.37;;;10.00;99.90;;;;;;4156717;28;20509;-62
2022/11/01 05:47:40;;;;;;;21.83;11.40;;;10.00;99.90;;;;;;4153157;28;20099;-62
2022/11/01 05:49:41;;;;;;;23.47;11.27;;;10.00;99.90;;;;;;4149672;28;20037;-61
2022/11/01 05:51:43;;;;;;;19.70;10.10;;;10.10;99.90;;;;;;4147452;28;20033;-61
2022/11/01 05:53:44;;;;;;;15.80;9.23;;;10.10;99.90;;;;;;4161422;28;20907;-61
2022/11/01 05:55:45;;;;;;;15.00;8.10;;;10.10;99.90;;;;;;4160100;28;20099;-62
2022/11/01 05:57:46;;;;;;;18.33;8.17;;;10.10;99.90;;;;;;4159800;28;20437;-62
2022/11/01 05:59:47;;;;;;;13.57;7.87;;;10.10;99.90;;;;;;4158921;28;20079;-62
2022/11/01 06:01:48;;;;;;;16.33;7.67;;;10.10;99.90;;;;;;4144252;28;20026;-62
2022/11/01 06:03:49;;;;;;;16.63;8.47;;;10.00;99.90;;;;;;4144456;28;20505;-61
2022/11/01 06:05:51;;;;;;;14.67;8.40;;;10.00;99.90;;;;;;4143679;28;20034;-63
2022/11/01 06:07:52;;;;;;;15.60;7.60;;;10.00;99.90;;;;;;4142959;28;20450;-62
2022/11/01 06:09:53;;;;;;;16.27;7.97;;;10.00;99.90;;;;;;4142160;28;20056;-61
2022/11/01 06:11:54;;;;;;;13.27;8.43;;;10.00;99.90;;;;;;4144068;28;20080;-61
2022/11/01 06:13:56;;;;;;;17.73;8.60;;;10.00;99.90;;;;;;4142579;28;20038;-66
2022/11/01 06:16:02;;;;;;;13.97;7.90;;;10.00;99.90;;;;;;4144388;28;20096;-61
2022/11/01 06:18:04;;;;;;;13.10;7.13;;;10.00;99.90;;;;;;4141391;28;20441;-61
2022/11/01 06:20:06;;;;;;;17.60;7.93;;;10.00;99.90;;;;;;4144557;28;20046;-64
2022/11/01 06:22:07;;;;;;;14.47;7.30;;;10.10;99.90;;;;;;4142917;28;20041;-61
2022/11/01 06:24:10;;;;;;;12.43;7.50;;;10.10;99.90;;;;;;4144494;28;20042;-62
2022/11/01 06:26:11;;;;;;;11.73;7.00;;;10.10;99.90;;;;;;4143236;28;20057;-67
2022/11/01 06:28:13;;;;;;;13.40;7.77;;;10.10;99.90;;;;;;4144200;28;20045;-66
2022/11/01 06:30:14;;;;;;;13.50;8.57;;;10.10;99.90;;;;;;4143972;28;20030;-61
2022/11/01 06:32:15;;;;;;;17.87;8.30;;;10.10;99.90;;;;;;4143561;28;20030;-61
2022/11/01 06:34:16;;;;;;;14.33;7.53;;;10.10;99.90;;;;;;4143538;28;20042;-62
2022/11/01 06:36:17;;;;;;;18.60;9.73;;;10.10;99.90;;;;;;4143891;28;20092;-60
2022/11/01 06:38:18;;;;;;;10.90;7.40;;;10.10;99.90;;;;;;4144477;28;20030;-62
2022/11/01 06:40:19;;;;;;;15.23;8.67;;;10.20;99.90;;;;;;4142845;28;20065;-61
2022/11/01 06:42:21;;;;;;;15.80;8.07;;;10.20;99.90;;;;;;4143942;28;20088;-62
2022/11/01 06:44:22;;;;;;;13.63;7.43;;;10.20;99.90;;;;;;4143437;28;20462;-62
2022/11/01 06:46:23;;;;;;;15.60;7.67;;;10.20;99.90;;;;;;4143842;28;20042;-62
2022/11/01 06:48:24;;;;;;;15.30;8.10;;;10.20;99.90;;;;;;4142256;28;20375;-63
2022/11/01 06:50:25;;;;;;;18.73;9.20;;;10.30;99.90;;;;;;4143876;28;20050;-66
2022/11/01 06:52:26;;;;;;;16.40;10.00;;;10.30;99.90;;;;;;4142821;28;20105;-61
2022/11/01 06:54:28;;;;;;;18.37;9.73;;;10.30;99.90;;;;;;4144339;28;20088;-64
2022/11/01 06:56:29;;;;;;;18.60;9.30;;;10.30;99.90;;;;;;4143070;28;20728;-68
2022/11/01 06:58:30;;;;;;;18.13;10.10;;;10.40;99.90;;;;;;4143769;28;20042;-62
2022/11/01 07:00:31;;;;;;;20.07;9.83;;;10.40;99.90;;;;;;4143770;28;20026;-62
2022/11/01 07:02:33;;;;;;;17.77;9.73;;;10.40;99.90;;;;;;4143407;28;20062;-61
2022/11/01 07:04:35;;;;;;;16.30;9.00;;;10.40;99.90;;;;;;4143437;28;20084;-63
2022/11/01 07:06:37;;;;;;;20.73;10.47;;;10.30;99.90;;;;;;4143960;28;20502;-66
2022/11/01 07:08:38;;;;;;;19.53;10.27;;;10.30;99.90;;;;;;4143658;28;20034;-61
2022/11/01 07:10:41;;;;;;;22.37;10.57;;;10.30;99.90;;;;;;4143489;28;20461;-62
2022/11/01 07:12:43;;;;;;;24.87;11.03;;;10.30;99.90;;;;;;4143501;28;20104;-64
2022/11/01 07:14:44;;;;;;;21.47;10.30;;;10.30;99.90;;;;;;4125231;28;20046;-64
2022/11/01 07:16:45;;;;;;;21.33;11.03;;;10.30;99.90;;;;;;4144315;28;20042;-61
2022/11/01 07:18:46;;;;;;;18.73;9.50;;;10.30;99.90;;;;;;4144181;28;20862;-64
2022/11/01 07:20:49;;;;;;;18.80;9.40;;;10.40;99.90;;;;;;4147477;28;20088;-63
2022/11/01 07:23:01;;;;;;;16.90;9.73;;;10.40;99.90;;;;;;4144571;28;20096;-61
2022/11/01 07:25:03;;;;;;;15.50;8.80;;;10.40;99.90;;;;;;4147859;28;20085;-67
2022/11/01 07:27:04;;;;;;;17.57;8.63;;;10.50;99.90;;;;;;4145664;28;20033;-66
2022/11/01 07:29:05;;;;;;;17.90;10.23;;;10.50;99.90;;;;;;4146312;28;20422;-65
2022/11/01 07:31:06;;;;;;;21.40;9.63;;;10.60;99.90;;;;;;4145428;28;20041;-65
2022/11/01 07:33:08;;;;;;;23.53;10.03;;;10.70;99.90;;;;;;4147099;28;20041;-62
2022/11/01 07:35:09;;;;;;;24.03;11.70;;;10.70;99.90;;;;;;4128132;28;20031;-61
2022/11/01 07:37:10;;;;;;;22.23;11.37;;;10.70;99.90;;;;;;4146559;28;20038;-63
2022/11/01 07:39:12;;;;;;;24.73;12.50;;;10.70;99.90;;;;;;4146665;28;20070;-62
2022/11/01 07:41:13;;;;;;;19.47;10.53;;;10.60;99.90;;;;;;4145983;28;20110;-61
2022/11/01 07:43:16;;;;;;;25.40;11.00;;;10.60;99.90;;;;;;4146755;28;20034;-62
2022/11/01 07:45:17;;;;;;;23.27;12.30;;;10.70;99.90;;;;;;4145732;28;20092;-60
2022/11/01 07:47:18;;;;;;;23.40;11.73;;;10.80;99.90;;;;;;4146330;28;20560;-61
2022/11/01 07:49:19;;;;;;;25.97;13.33;;;10.80;99.90;;;;;;4145403;28;20056;-62
2022/11/01 07:51:21;;;;;;;33.70;13.00;;;10.90;99.90;;;;;;4147091;28;20025;-61
2022/11/01 07:53:22;;;;;;;24.53;11.13;;;11.00;99.90;;;;;;4145528;28;20042;-61
2022/11/01 07:55:23;;;;;;;27.57;13.17;;;11.00;99.90;;;;;;4147058;28;20030;-60
2022/11/01 07:57:24;;;;;;;17.83;9.67;;;11.00;99.90;;;;;;4146033;28;20026;-61
2022/11/01 07:59:25;;;;;;;19.20;11.30;;;11.00;99.90;;;;;;4146259;28;20038;-62
2022/11/01 08:01:26;;;;;;;22.83;11.43;;;11.10;99.90;;;;;;4145020;28;20046;-61
2022/11/01 08:03:27;;;;;;;21.73;11.30;;;11.00;99.90;;;;;;4146824;28;20026;-61
2022/11/01 08:05:30;;;;;;;25.63;11.60;;;11.00;99.90;;;;;;4146007;28;20084;-62
2022/11/01 08:07:36;;;;;;;23.63;11.17;;;11.10;99.90;;;;;;4146358;28;20081;-61
2022/11/01 08:09:37;;;;;;;26.27;12.10;;;11.10;99.90;;;;;;4146077;28;20069;-62
2022/11/01 08:11:38;;;;;;;23.67;10.47;;;11.10;99.90;;;;;;4145320;28;20022;-61
2022/11/01 08:13:39;;;;;;;22.70;11.60;;;11.20;99.90;;;;;;4146369;28;20646;-62
2022/11/01 08:15:41;;;;;;;21.90;11.30;;;11.30;99.90;;;;;;4145755;28;20478;-62
2022/11/01 08:17:43;;;;;;;20.13;10.73;;;11.20;99.90;;;;;;4146511;28;20084;-62
2022/11/01 08:19:44;;;;;;;20.30;10.87;;;11.20;99.90;;;;;;4144835;28;20049;-62
2022/11/01 08:21:45;;;;;;;23.70;11.03;;;11.20;99.90;;;;;;4146680;28;20046;-62
2022/11/01 08:23:46;;;;;;;23.10;11.30;;;11.20;99.90;;;;;;4145740;28;20433;-64
2022/11/01 08:25:47;;;;;;;21.27;11.10;;;11.20;99.90;;;;;;4129136;28;20066;-61
2022/11/01 08:27:48;;;;;;;25.10;11.90;;;11.20;99.90;;;;;;4145483;28;20041;-64
2022/11/01 08:29:50;;;;;;;23.97;11.17;;;11.10;99.90;;;;;;4145131;28;20060;-61
2022/11/01 08:31:51;;;;;;;23.50;11.07;;;11.10;99.90;;;;;;4144299;28;20049;-61
2022/11/01 08:33:53;;;;;;;25.53;11.57;;;11.10;99.90;;;;;;4146395;28;20096;-64
2022/11/01 08:35:54;;;;;;;21.53;11.23;;;11.20;99.90;;;;;;4144501;28;20122;-61
2022/11/01 08:37:55;;;;;;;21.93;10.60;;;11.10;99.90;;;;;;4146219;28;20026;-61
2022/11/01 08:39:56;;;;;;;21.73;10.57;;;11.10;99.90;;;;;;4145464;28;20080;-61
2022/11/01 08:41:59;;;;;;;18.57;10.13;;;11.10;99.90;;;;;;4145010;28;20037;-60
2022/11/01 08:44:00;;;;;;;21.17;10.67;;;11.20;99.90;;;;;;4145170;28;20041;-60
2022/11/01 08:46:01;;;;;;;20.23;11.27;;;11.20;99.90;;;;;;4144598;28;20030;-62
2022/11/01 08:48:04;;;;;;;18.97;11.70;;;11.30;99.90;;;;;;4145860;28;20092;-60
2022/11/01 08:50:07;;;;;;;21.23;11.57;;;11.30;99.90;;;;;;4144210;28;20488;-64
2022/11/01 08:52:08;;;;;;;21.53;11.97;;;11.50;99.90;;;;;;4145322;28;20092;-66
2022/11/01 08:54:09;;;;;;;16.67;10.67;;;11.60;99.90;;;;;;4143866;28;20037;-63
2022/11/01 08:56:10;;;;;;;20.40;11.90;;;11.60;99.90;;;;;;4145745;28;20061;-64
2022/11/01 08:58:11;;;;;;;18.23;9.77;;;11.70;99.90;;;;;;4144949;28;20033;-62
2022/11/01 09:00:15;;;;;;;20.23;10.57;;;11.70;99.90;;;;;;4145535;28;20084;-61
2022/11/01 09:02:16;;;;;;;18.07;9.87;;;11.80;99.90;;;;;;4143971;28;20045;-60
2022/11/01 09:04:17;;;;;;;18.70;10.07;;;11.80;99.90;;;;;;4145188;28;20082;-61
2022/11/01 09:06:18;;;;;;;20.43;9.97;;;11.80;99.90;;;;;;4143534;28;20119;-68
2022/11/01 09:08:19;;;;;;;16.37;8.40;;;11.90;99.90;;;;;;4144356;28;20064;-60
2022/11/01 09:10:20;;;;;;;17.53;8.87;;;12.00;99.90;;;;;;4144458;28;20457;-61
2022/11/01 09:12:22;;;;;;;18.77;9.73;;;12.00;99.90;;;;;;4145015;28;20100;-66
2022/11/01 09:14:25;;;;;;;14.87;8.67;;;12.00;99.90;;;;;;4144967;28;20470;-59
2022/11/01 09:16:26;;;;;;;15.50;8.57;;;12.00;99.90;;;;;;4144100;28;20833;-67
2022/11/01 09:18:27;;;;;;;17.23;9.17;;;11.90;99.90;;;;;;4145334;28;20104;-61
2022/11/01 09:20:28;;;;;;;18.00;9.00;;;11.90;99.90;;;;;;4143850;28;20034;-62
2022/11/01 09:22:29;;;;;;;14.33;8.80;;;12.00;99.90;;;;;;4144574;28;20469;-62
2022/11/01 09:24:30;;;;;;;15.77;8.87;;;11.90;99.90;;;;;;4144326;28;20390;-62
2022/11/01 09:26:31;;;;;;;15.27;8.00;;;12.00;99.90;;;;;;4145964;28;20430;-67
2022/11/01 09:28:33;;;;;;;20.00;8.93;;;12.00;99.90;;;;;;4144208;28;20161;-64
2022/11/01 09:30:34;;;;;;;15.63;8.73;;;12.00;99.90;;;;;;4145361;28;20034;-62
2022/11/01 09:32:35;;;;;;;15.10;7.77;;;12.10;99.90;;;;;;4143574;28;20038;-61
2022/11/01 09:34:36;;;;;;;18.27;9.40;;;12.20;99.90;;;;;;4145529;28;20029;-63
2022/11/01 09:36:37;;;;;;;17.30;9.00;;;12.30;99.90;;;;;;4144373;28;20099;-61
2022/11/01 09:38:38;;;;;;;18.93;9.37;;;12.30;99.90;;;;;;4145317;28;20371;-68
2022/11/01 09:40:45;;;;;;;19.83;10.00;;;12.40;99.90;;;;;;4144362;28;20426;-63
2022/11/01 09:42:46;;;;;;;18.70;9.60;;;12.40;99.90;;;;;;4143565;28;20064;-62
2022/11/01 09:44:51;;;;;;;15.57;8.63;;;12.50;99.90;;;;;;4144692;28;20470;-62
2022/11/01 09:46:57;;;;;;;17.57;8.87;;;12.50;99.90;;;;;;4143544;28;20096;-67
2022/11/01 09:49:02;;;;;;;17.97;9.13;;;12.50;99.90;;;;;;4143966;28;20069;-61
2022/11/01 09:51:10;;;;;;;17.07;9.73;;;12.60;99.90;;;;;;4143764;28;20080;-63
2022/11/01 09:53:20;;;;;;;18.10;10.27;;;12.70;99.90;;;;;;4144694;28;20482;-62
2022/11/01 09:55:39;;;;;;;18.95;9.48;;;12.60;99.90;;;;;;4143852;28;20072;-67
2022/11/01 09:57:48;;;;;;;16.73;9.23;;;12.60;99.90;;;;;;4144594;28;20057;-61
2022/11/01 10:00:12;;;;;;;17.57;9.13;;;12.70;99.90;;;;;;4144391;28;20029;-60
2022/11/01 10:02:32;;;;;;;21.50;10.03;;;12.70;99.90;;;;;;4143865;28;20076;-61
2022/11/01 10:04:52;;;;;;;19.30;11.13;;;12.40;99.90;;;;;;4144797;28;20092;-60
2022/11/01 10:07:01;;;;;;;19.65;10.18;;;12.30;99.90;;;;;;4143996;28;20268;-62
2022/11/01 10:09:37;;;;;;;17.90;9.77;;;12.30;99.90;;;;;;4145000;28;20038;-66
2022/11/01 10:12:08;;;;;;;18.97;10.07;;;12.30;99.90;;;;;;4143819;28;20050;-62
2022/11/01 10:14:36;;;;;;;20.73;10.73;;;12.40;99.90;;;;;;4144640;28;20084;-63
2022/11/01 10:16:40;;;;;;;17.10;9.73;;;12.40;99.90;;;;;;4143846;28;20112;-63
2022/11/01 10:18:47;;;;;;;23.10;11.73;;;12.40;99.90;;;;;;4144245;28;20109;-63
2022/11/01 10:20:48;;;;;;;19.37;11.10;;;12.40;99.90;;;;;;4143021;28;20046;-62
2022/11/01 10:22:50;;;;;;;17.47;10.53;;;12.40;99.90;;;;;;4144339;28;20034;-64
2022/11/01 10:25:00;;;;;;;19.27;11.03;;;12.50;99.90;;;;;;4144029;28;20065;-63
2022/11/01 10:27:19;;;;;;;21.95;11.35;;;12.30;99.90;;;;;;4144581;28;20038;-62
2022/11/01 10:29:47;;;;;;;18.53;10.90;;;12.20;99.90;;;;;;4142496;28;20042;-61
2022/11/01 10:31:52;;;;;;;17.50;9.50;;;12.20;99.90;;;;;;4144541;28;20064;-64
2022/11/01 10:33:57;;;;;;;19.33;11.10;;;12.20;99.90;;;;;;4143293;28;20034;-62
2022/11/01 10:36:09;;;;;;;25.30;10.90;;;12.20;99.90;;;;;;4126554;28;20108;-62
2022/11/01 10:38:36;;;;;;;22.53;11.83;;;12.10;99.90;;;;;;4143799;28;20088;-62